createdAt,value
2022-12-29T00:01:14.718Z,99540.09
2022-12-29T00:06:17.469Z,99549.69
2022-12-29T00:11:21.464Z,99536.81
2022-12-29T00:16:25.635Z,99546.88
2022-12-29T00:21:46.018Z,99548.44
2022-12-29T00:27:06.479Z,99532.16
2022-12-29T00:32:28.249Z,99537.66
2022-12-29T00:37:45.134Z,99537.66
2022-12-29T00:43:06.023Z,99526.06
2022-12-29T00:48:10.185Z,99521.41
2022-12-29T00:53:12.992Z,99533.84
2022-12-29T00:58:16.856Z,99523.25
2022-12-29T01:03:22.134Z,99525.38
2022-12-29T01:08:25.136Z,99523.53
2022-12-29T01:13:27.931Z,99535.97
2022-12-29T01:18:32.097Z,99522.25
2022-12-29T01:23:35.841Z,99524.09
2022-12-29T01:28:41.077Z,99510.94
2022-12-29T01:33:45.316Z,99507.41
2022-12-29T01:38:48.544Z,99507.53
2022-12-29T01:43:52.404Z,99516.31
2022-12-29T01:49:00.955Z,99500.03
2022-12-29T01:54:04.796Z,99495.50
2022-12-29T01:59:08.792Z,99487.59
2022-12-29T02:04:13.062Z,99476.53
2022-12-29T02:09:15.856Z,99484.59
2022-12-29T02:14:21.214Z,99484.75
2022-12-29T02:19:56.571Z,99478.69
2022-12-29T02:25:40.190Z,99471.06
2022-12-29T02:30:47.608Z,99476.16
2022-12-29T02:35:54.698Z,99471.47
2022-12-29T02:40:59.986Z,99468.47
2022-12-29T02:46:06.698Z,99478.38
2022-12-29T02:51:11.473Z,99465.47
2022-12-29T02:56:14.261Z,99467.19
2022-12-29T03:01:25.272Z,99453.88
2022-12-29T03:06:33.269Z,99439.44
2022-12-29T03:11:57.412Z,99425.03
2022-12-29T03:17:02.598Z,99419.94
2022-12-29T03:22:23.968Z,99429.25
2022-12-29T03:27:35.630Z,99423.88
2022-12-29T03:32:40.786Z,99431.94
2022-12-29T03:37:45.069Z,99437.47
2022-12-29T03:42:49.344Z,99440.88
2022-12-29T03:47:53.604Z,99461.25
2022-12-29T03:52:57.046Z,99464.50
2022-12-29T03:57:59.978Z,99460.94
2022-12-29T04:03:22.842Z,99474.59
2022-12-29T04:08:26.652Z,99472.78
2022-12-29T04:13:29.553Z,99479.16
2022-12-29T04:18:33.960Z,99493.19
2022-12-29T04:23:38.143Z,99485.03
2022-12-29T04:28:43.456Z,99489.28
2022-12-29T04:34:03.481Z,99486.31
2022-12-29T04:39:07.231Z,99474.56
2022-12-29T04:44:11.615Z,99478.69
2022-12-29T04:49:18.410Z,99472.16
2022-12-29T04:54:24.290Z,99470.31
2022-12-29T04:59:35.105Z,99470.88
2022-12-29T05:04:39.306Z,99459.44
2022-12-29T05:09:42.821Z,99467.78
2022-12-29T05:14:46.493Z,99443.19
2022-12-29T05:19:50.631Z,99449.16
2022-12-29T05:24:53.941Z,99452.09
2022-12-29T05:29:57.048Z,99435.16
2022-12-29T05:35:01.305Z,99428.53
2022-12-29T05:40:06.672Z,99415.13
2022-12-29T05:45:10.780Z,99421.59
2022-12-29T05:50:28.663Z,99424.41
2022-12-29T05:55:49.128Z,99424.84
2022-12-29T06:00:53.432Z,99417.66
2022-12-29T06:05:57.649Z,99424.00
2022-12-29T06:11:00.548Z,99413.44
2022-12-29T06:16:03.948Z,99421.59
2022-12-29T06:21:08.978Z,99411.16
2022-12-29T06:26:12.723Z,99413.28
2022-12-29T06:31:15.595Z,99416.22
2022-12-29T06:36:19.732Z,99423.72
2022-12-29T06:41:26.993Z,99425.84
2022-12-29T06:47:03.671Z,99439.78
2022-12-29T06:52:12.721Z,99433.13
2022-12-29T06:57:15.858Z,99408.41
2022-12-29T07:02:20.635Z,99402.59
2022-12-29T07:07:25.003Z,99402.91
2022-12-29T07:12:27.983Z,99393.44
2022-12-29T07:17:30.715Z,99386.50
2022-12-29T07:22:34.798Z,99377.91
2022-12-29T07:27:37.568Z,99396.25
2022-12-29T07:32:40.335Z,99396.50
2022-12-29T07:37:44.474Z,99394.97
2022-12-29T07:42:47.246Z,99390.00
2022-12-29T07:47:52.090Z,99398.19
2022-12-29T07:52:57.396Z,99403.97
2022-12-29T07:58:00.145Z,99412.16
2022-12-29T08:03:02.913Z,99424.69
2022-12-29T08:08:07.240Z,99421.88
2022-12-29T08:13:10.475Z,99432.75
2022-12-29T08:18:13.235Z,99438.50
2022-12-29T08:23:17.458Z,99440.59
2022-12-29T08:28:20.237Z,99435.50
2022-12-29T08:33:23.060Z,99432.97
2022-12-29T08:38:28.757Z,99436.19
2022-12-29T08:43:31.606Z,99438.03
2022-12-29T08:48:34.404Z,99424.75
2022-12-29T08:53:38.499Z,99426.56
2022-12-29T08:58:41.473Z,99430.94
2022-12-29T09:09:08.566Z,99407.09
2022-12-29T09:14:11.290Z,99416.84
2022-12-29T09:19:14.261Z,99416.59
2022-12-29T09:24:18.501Z,99415.47
2022-12-29T09:29:21.363Z,99416.16
2022-12-29T09:34:24.218Z,99428.59
2022-12-29T09:39:28.383Z,99433.09
2022-12-29T09:44:33.841Z,99425.19
2022-12-29T09:49:40.794Z,99421.38
2022-12-29T09:54:56.356Z,99430.41
2022-12-29T10:00:05.438Z,99424.75
2022-12-29T10:05:22.208Z,99427.00
2022-12-29T10:10:33.383Z,99419.66
2022-12-29T10:15:52.039Z,99403.88
2022-12-29T10:20:56.255Z,99398.66
2022-12-29T10:26:00.941Z,99399.75
2022-12-29T10:31:08.913Z,99391.13
2022-12-29T10:36:15.938Z,99365.19
2022-12-29T10:41:22.546Z,99361.69
2022-12-29T10:46:27.390Z,99355.47
2022-12-29T10:51:32.235Z,99365.78
2022-12-29T10:56:38.404Z,99365.66
2022-12-29T11:01:43.897Z,99350.84
2022-12-29T11:06:46.861Z,99356.53
2022-12-29T11:11:51.105Z,99357.78
2022-12-29T11:16:58.969Z,99357.94
2022-12-29T11:22:14.799Z,99369.91
2022-12-29T11:27:20.650Z,99360.06
2022-12-29T11:32:28.913Z,99362.72
2022-12-29T11:37:35.541Z,99362.44
2022-12-29T11:42:41.259Z,99352.72
2022-12-29T11:47:44.685Z,99354.44
2022-12-29T11:52:47.582Z,99354.75
2022-12-29T11:57:51.765Z,99364.31
2022-12-29T12:02:57.666Z,99338.66
2022-12-29T12:08:04.203Z,99348.81
2022-12-29T12:13:13.502Z,99357.69
2022-12-29T12:18:19.523Z,99359.53
2022-12-29T12:23:29.389Z,99354.19
2022-12-29T12:28:38.874Z,99357.28
2022-12-29T12:33:43.918Z,99365.47
2022-12-29T12:38:49.645Z,99367.03
2022-12-29T12:43:55.147Z,99362.72
2022-12-29T12:49:13.969Z,99366.13
2022-12-29T12:54:25.888Z,99381.38
2022-12-29T12:59:45.185Z,99366.13
2022-12-29T13:05:06.115Z,99372.50
2022-12-29T13:10:21.724Z,99371.78
2022-12-29T13:15:35.992Z,99386.03
2022-12-29T13:20:41.450Z,99389.00
2022-12-29T13:25:46.982Z,99394.47
2022-12-29T13:30:55.173Z,99378.38
2022-12-29T13:36:01.384Z,99382.03
2022-12-29T13:41:06.059Z,99399.72
2022-12-29T13:46:12.124Z,99398.81
2022-12-29T13:51:15.271Z,99406.16
2022-12-29T13:56:21.500Z,99386.56
2022-12-29T14:01:29.425Z,99388.38
2022-12-29T14:06:32.678Z,99393.75
2022-12-29T14:11:36.709Z,99396.56
2022-12-29T14:16:42.042Z,99430.13
2022-12-29T14:21:52.653Z,99425.50
2022-12-29T14:26:55.447Z,99449.03
2022-12-29T14:31:59.688Z,99438.72
2022-12-29T14:37:02.817Z,99444.69
2022-12-29T14:42:06.537Z,99455.44
2022-12-29T14:47:10.804Z,99471.44
2022-12-29T14:52:17.251Z,99468.34
2022-12-29T14:57:35.544Z,99464.25
2022-12-29T15:02:41.971Z,99463.88
2022-12-29T15:07:44.863Z,99473.47
2022-12-29T15:12:49.691Z,99473.06
2022-12-29T15:17:53.966Z,99481.66
2022-12-29T15:22:58.296Z,99494.56
2022-12-29T15:28:03.204Z,99500.50
2022-12-29T15:33:19.460Z,99501.34
2022-12-29T15:38:31.144Z,99509.09
2022-12-29T15:43:46.892Z,99511.69
2022-12-29T15:48:51.400Z,99514.06
2022-12-29T15:53:54.560Z,99517.16
2022-12-29T15:58:57.312Z,99526.81
2022-12-29T16:04:01.551Z,99539.94
2022-12-29T16:09:05.545Z,99550.38
2022-12-29T16:14:09.751Z,99561.09
2022-12-29T16:19:15.418Z,99569.03
2022-12-29T16:24:20.171Z,99574.28
2022-12-29T16:29:23.153Z,99573.28
2022-12-29T16:34:28.776Z,99576.66
2022-12-29T16:39:38.013Z,99577.50
2022-12-29T16:44:40.852Z,99575.69
2022-12-29T16:49:47.057Z,99582.59
2022-12-29T16:54:52.089Z,99580.06
2022-12-29T16:59:56.265Z,99586.13
2022-12-29T17:05:00.383Z,99583.59
2022-12-29T17:10:03.227Z,99580.19
2022-12-29T17:15:09.230Z,99590.38
2022-12-29T17:20:17.231Z,99597.81
2022-12-29T17:25:21.010Z,99586.53
2022-12-29T17:30:29.677Z,99594.41
2022-12-29T17:35:37.358Z,99596.09
2022-12-29T17:40:40.282Z,99596.66
2022-12-29T17:45:43.331Z,99595.50
2022-12-29T17:50:47.764Z,99597.97
2022-12-29T17:55:50.507Z,99596.09
2022-12-29T18:00:54.831Z,99603.56
2022-12-29T18:05:59.223Z,99607.19
2022-12-29T18:11:02.120Z,99598.72
2022-12-29T18:16:05.622Z,99609.00
2022-12-29T18:21:12.769Z,99607.56
2022-12-29T18:26:20.885Z,99599.19
2022-12-29T18:31:29.209Z,99609.22
2022-12-29T18:36:33.413Z,99608.78
2022-12-29T18:41:36.195Z,99605.47
2022-12-29T18:46:40.474Z,99607.44
2022-12-29T18:51:44.650Z,99615.63
2022-12-29T18:56:47.420Z,99614.91
2022-12-29T19:01:50.285Z,99620.38
2022-12-29T19:06:54.461Z,99622.47
2022-12-29T19:11:57.247Z,99629.66
2022-12-29T19:17:00.663Z,99630.78
2022-12-29T19:22:04.772Z,99641.75
2022-12-29T19:27:07.557Z,99633.84
2022-12-29T19:32:10.282Z,99627.78
2022-12-29T19:37:14.505Z,99614.66
2022-12-29T19:42:17.326Z,99621.00
2022-12-29T19:47:21.058Z,99614.78
2022-12-29T19:52:26.155Z,99615.72
2022-12-29T19:57:28.941Z,99617.56
2022-12-29T20:02:33.901Z,99617.06
2022-12-29T20:07:38.335Z,99613.72
2022-12-29T20:12:41.194Z,99614.78
2022-12-29T20:18:12.596Z,99628.25
2022-12-29T20:23:08.209Z,99627.31
2022-12-29T20:28:10.983Z,99632.88
2022-12-29T20:33:13.778Z,99638.81
2022-12-29T20:38:17.939Z,99638.16
2022-12-29T20:43:20.739Z,99641.53
2022-12-29T20:48:23.475Z,99655.13
2022-12-29T20:53:27.796Z,99648.44
2022-12-29T20:58:30.905Z,99648.88
2022-12-29T21:03:33.781Z,99663.72
2022-12-29T21:08:38.544Z,99676.59
2022-12-29T21:13:41.339Z,99687.78
2022-12-29T21:18:44.117Z,99686.50
2022-12-29T21:23:48.413Z,99686.97
2022-12-29T21:28:51.188Z,99694.59
2022-12-29T21:33:54.094Z,99690.69
2022-12-29T21:38:59.101Z,99691.09
2022-12-29T21:44:19.250Z,99700.47
2022-12-29T21:49:23.840Z,99698.34
2022-12-29T21:54:46.531Z,99703.31
2022-12-29T22:00:07.097Z,99716.47
2022-12-29T22:05:30.275Z,99714.09
2022-12-29T22:10:52.177Z,99720.88
2022-12-29T22:15:55.427Z,99712.53
2022-12-29T22:20:58.563Z,99720.19
2022-12-29T22:26:06.703Z,99715.28
2022-12-29T22:31:25.226Z,99716.72
2022-12-29T22:36:29.366Z,99720.97
2022-12-29T22:41:34.841Z,99731.31
2022-12-29T22:46:37.681Z,99741.06
2022-12-29T22:51:40.630Z,99737.38
2022-12-29T22:56:44.791Z,99760.41
2022-12-29T23:01:47.729Z,99767.09
2022-12-29T23:06:50.696Z,99758.03
2022-12-29T23:11:55.047Z,99767.50
2022-12-29T23:16:58.029Z,99763.69
2022-12-29T23:22:00.922Z,99784.78
2022-12-29T23:27:05.261Z,99790.00
2022-12-29T23:32:08.203Z,99785.78
2022-12-29T23:37:11.465Z,99774.75
2022-12-29T23:42:15.777Z,99774.34
2022-12-29T23:47:18.871Z,99781.41
2022-12-29T23:52:21.886Z,99789.88
2022-12-29T23:57:26.178Z,99781.44
